Time;durP1;ratioP1;P1;durP2;ratioP2;P2;SDS_P1;SDS_P2;PMS_P1;PMS_P2;Temp;Humidity;BMP_temperature;BMP_pressure;BME280_temperature;BME280_humidity;BME280_pressure;Samples;Min_cycle;Max_cycle;Signal;HPM_P1;HPM_P2
2023/06/07 00:00:21;;;;;;;8.13;3.72;;;20.10;61.80;;;;;;4192272;28;20384;-63
2023/06/07 00:03:02;;;;;;;7.70;3.60;;;20.10;61.00;;;;;;4192540;28;20060;-63
2023/06/07 00:05:43;;;;;;;7.63;3.65;;;20.10;60.70;;;;;;4192959;28;20551;-63
2023/06/07 00:08:26;;;;;;;7.25;3.67;;;20.00;60.60;;;;;;4192674;28;20149;-63
2023/06/07 00:11:06;;;;;;;9.57;4.15;;;20.00;60.70;;;;;;4209593;28;20042;-63
2023/06/07 00:13:50;;;;;;;9.07;3.63;;;20.00;60.70;;;;;;4209607;28;20406;-63
2023/06/07 00:16:32;;;;;;;6.70;3.22;;;20.00;60.80;;;;;;4202485;28;20514;-65
2023/06/07 00:19:15;;;;;;;9.00;3.72;;;20.00;61.00;;;;;;4207195;28;20113;-63
2023/06/07 00:21:55;;;;;;;8.60;4.25;;;20.00;61.20;;;;;;4209273;28;20051;-63
2023/06/07 00:24:38;;;;;;;10.15;4.10;;;20.00;61.30;;;;;;4209398;28;20071;-63
2023/06/07 00:27:19;;;;;;;7.55;3.45;;;20.00;61.30;;;;;;4209097;28;20063;-63
2023/06/07 00:30:00;;;;;;;10.10;3.58;;;20.00;61.40;;;;;;4175419;28;20051;-63
2023/06/07 00:32:41;;;;;;;;;;;20.00;61.40;;;;;;4185866;28;20075;-63
2023/06/07 00:35:23;;;;;;;10.60;4.47;;;19.90;61.30;;;;;;4192953;28;20066;-64
2023/06/07 00:38:06;;;;;;;10.75;3.65;;;19.90;61.50;;;;;;4192501;28;20047;-65
2023/06/07 00:40:49;;;;;;;7.43;4.18;;;19.90;61.00;;;;;;4190754;28;20089;-65
2023/06/07 00:43:30;;;;;;;15.80;4.25;;;19.90;61.00;;;;;;4192341;28;20047;-65
2023/06/07 00:46:11;;;;;;;9.10;4.22;;;19.90;61.10;;;;;;4192114;28;20051;-65
2023/06/07 00:48:53;;;;;;;13.60;4.78;;;19.90;61.20;;;;;;4192307;28;20075;-65
2023/06/07 00:51:34;;;;;;;;;;;19.80;61.30;;;;;;4192736;28;20055;-63
2023/06/07 00:54:17;;;;;;;11.90;4.50;;;19.80;61.40;;;;;;4192178;28;20058;-64
2023/06/07 00:57:00;;;;;;;8.27;4.63;;;19.80;62.50;;;;;;4190986;28;20110;-64
2023/06/07 00:59:42;;;;;;;11.73;4.38;;;19.80;61.50;;;;;;4191134;28;20056;-64
2023/06/07 01:02:23;;;;;;;10.48;4.00;;;19.80;61.70;;;;;;4191252;28;20064;-65
2023/06/07 01:05:06;;;;;;;8.57;3.80;;;19.80;61.60;;;;;;4192053;28;20055;-64
2023/06/07 01:07:49;;;;;;;11.50;3.58;;;19.80;61.70;;;;;;4191190;28;20055;-65
2023/06/07 01:10:30;;;;;;;13.73;4.18;;;19.80;61.70;;;;;;4192252;28;20056;-65
2023/06/07 01:13:12;;;;;;;;;;;19.80;61.90;;;;;;4191400;28;20056;-65
2023/06/07 01:15:53;;;;;;;10.38;3.70;;;19.80;62.10;;;;;;4192156;28;20022;-65
2023/06/07 01:18:35;;;;;;;8.00;3.50;;;19.70;62.50;;;;;;4175336;28;20554;-63
2023/06/07 01:21:19;;;;;;;4.93;3.50;;;19.70;62.60;;;;;;4190270;28;20050;-64
2023/06/07 01:24:02;;;;;;;12.93;3.63;;;19.70;62.50;;;;;;4190199;28;20051;-63
2023/06/07 01:26:44;;;;;;;7.60;4.10;;;19.70;62.40;;;;;;4192152;28;20129;-63
2023/06/07 01:29:26;;;;;;;8.48;3.25;;;19.70;62.20;;;;;;4194716;28;20056;-63
2023/06/07 01:32:11;;;;;;;10.82;3.55;;;19.70;62.10;;;;;;4194002;28;20048;-64
2023/06/07 01:34:54;;;;;;;11.10;3.67;;;19.70;61.80;;;;;;4195429;28;20067;-64
2023/06/07 01:37:36;;;;;;;9.18;3.50;;;19.70;61.70;;;;;;4204639;28;20096;-64
2023/06/07 01:40:21;;;;;;;9.60;3.45;;;19.70;61.60;;;;;;4211168;28;20178;-64
2023/06/07 01:43:03;;;;;;;13.52;3.30;;;19.70;61.70;;;;;;4210812;28;20054;-64
2023/06/07 01:45:45;;;;;;;11.05;3.40;;;19.70;61.90;;;;;;4212086;28;20671;-63
2023/06/07 01:48:27;;;;;;;6.07;2.97;;;19.60;61.80;;;;;;4211909;28;20529;-63
2023/06/07 01:51:08;;;;;;;12.18;3.53;;;19.60;62.10;;;;;;4211858;28;20055;-64
2023/06/07 01:53:50;;;;;;;7.85;3.28;;;19.60;62.50;;;;;;4185092;28;20047;-64
2023/06/07 01:56:44;;;;;;;8.23;3.50;;;19.60;62.60;;;;;;4198772;28;20067;-64
2023/06/07 01:59:36;;;;;;;7.93;3.30;;;19.60;62.40;;;;;;4210177;28;20051;-64
2023/06/07 02:02:25;;;;;;;10.75;3.45;;;19.60;62.50;;;;;;4210401;28;20403;-64
2023/06/07 02:05:12;;;;;;;10.57;3.13;;;19.60;62.50;;;;;;4211503;28;20371;-64
2023/06/07 02:07:57;;;;;;;11.48;3.55;;;19.60;62.50;;;;;;4203259;28;20052;-64
2023/06/07 02:10:39;;;;;;;10.15;3.33;;;19.60;62.60;;;;;;4193678;28;20547;-64
2023/06/07 02:13:23;;;;;;;7.85;3.55;;;19.60;62.60;;;;;;4193556;28;20147;-63
2023/06/07 02:16:04;;;;;;;11.38;3.15;;;19.60;62.70;;;;;;4194865;28;20395;-63
2023/06/07 02:18:45;;;;;;;8.43;3.35;;;19.60;62.90;;;;;;4193250;28;20552;-64
2023/06/07 02:21:26;;;;;;;9.07;3.13;;;19.60;63.00;;;;;;4193927;28;20058;-66
2023/06/07 02:24:07;;;;;;;13.05;3.75;;;19.60;63.00;;;;;;4194148;28;20064;-66
2023/06/07 02:26:49;;;;;;;9.95;3.95;;;19.50;62.90;;;;;;4177764;28;20052;-67
2023/06/07 02:29:31;;;;;;;9.13;3.70;;;19.60;63.00;;;;;;4176781;28;20831;-66
2023/06/07 02:32:12;;;;;;;9.68;4.07;;;19.50;63.10;;;;;;4177272;28;20064;-66
2023/06/07 02:34:53;;;;;;;7.95;3.63;;;19.50;63.10;;;;;;4176013;28;20130;-66
2023/06/07 02:37:34;;;;;;;11.43;3.95;;;19.50;63.10;;;;;;4176745;28;20094;-66
2023/06/07 02:40:16;;;;;;;8.25;3.40;;;19.50;63.10;;;;;;4182573;28;20064;-66
2023/06/07 02:42:56;;;;;;;;;;;19.50;63.30;;;;;;4176083;28;20455;-66
2023/06/07 02:45:39;;;;;;;10.32;3.05;;;19.50;64.10;;;;;;4175459;28;19927;-66
2023/06/07 02:48:20;;;;;;;9.48;3.15;;;19.50;63.50;;;;;;4176908;28;20400;-67
2023/06/07 02:51:01;;;;;;;;;;;19.50;63.40;;;;;;4191966;28;20075;-67
2023/06/07 02:53:44;;;;;;;9.27;3.83;;;19.50;63.30;;;;;;4191810;28;20382;-67
2023/06/07 02:56:26;;;;;;;10.20;3.60;;;19.50;63.60;;;;;;4179484;28;20388;-67
2023/06/07 02:59:07;;;;;;;11.25;4.07;;;19.50;63.20;;;;;;4191808;28;20040;-67
2023/06/07 03:01:53;;;;;;;10.32;3.33;;;19.50;63.20;;;;;;4190517;28;20121;-67
2023/06/07 03:04:37;;;;;;;10.63;3.30;;;19.50;64.30;;;;;;4191687;28;20178;-66
2023/06/07 03:07:20;;;;;;;9.80;3.92;;;19.50;64.40;;;;;;4191554;28;20055;-66
2023/06/07 03:10:02;;;;;;;11.73;3.30;;;19.50;63.50;;;;;;4192970;28;20055;-66
2023/06/07 03:12:44;;;;;;;8.10;3.67;;;19.50;63.70;;;;;;4192600;28;20052;-66
2023/06/07 03:15:25;;;;;;;8.90;3.58;;;19.50;63.70;;;;;;4192772;28;20083;-66
2023/06/07 03:18:07;;;;;;;10.63;3.53;;;19.50;63.70;;;;;;4191481;28;20194;-66
2023/06/07 03:20:51;;;;;;;8.38;3.00;;;19.50;63.70;;;;;;4180095;28;20408;-66
2023/06/07 03:23:33;;;;;;;6.82;3.08;;;19.50;63.80;;;;;;4191887;28;20059;-66
2023/06/07 03:26:15;;;;;;;11.23;3.13;;;19.50;63.60;;;;;;4190966;28;20059;-66
2023/06/07 03:28:57;;;;;;;8.95;3.30;;;19.40;63.60;;;;;;4179497;28;20036;-67
2023/06/07 03:31:42;;;;;;;8.82;3.30;;;19.40;63.70;;;;;;4136293;28;1102050;-67
2023/06/07 03:34:29;;;;;;;12.77;4.28;;;19.40;63.90;;;;;;4164438;28;20103;-67
2023/06/07 03:37:13;;;;;;;7.18;3.30;;;19.40;63.80;;;;;;4175825;28;20051;-67
2023/06/07 03:39:54;;;;;;;10.18;3.92;;;19.40;63.70;;;;;;4175523;28;20106;-67
2023/06/07 03:42:36;;;;;;;10.30;3.42;;;19.40;63.60;;;;;;4176797;28;20183;-66
2023/06/07 03:45:18;;;;;;;7.72;3.00;;;19.40;63.80;;;;;;4173942;28;20365;-67
2023/06/07 03:47:59;;;;;;;11.00;3.92;;;19.40;63.90;;;;;;4175840;28;20048;-67
2023/06/07 03:50:43;;;;;;;11.57;4.10;;;19.40;63.90;;;;;;4163298;28;20056;-67
2023/06/07 03:53:27;;;;;;;10.80;4.05;;;19.40;64.00;;;;;;4186942;28;20381;-67
2023/06/07 03:56:08;;;;;;;8.70;3.97;;;19.40;64.20;;;;;;4164202;28;20514;-68
2023/06/07 03:58:53;;;;;;;11.45;3.65;;;19.40;64.30;;;;;;4176604;28;20118;-67
2023/06/07 04:01:35;;;;;;;8.30;3.90;;;19.40;64.30;;;;;;4175288;28;20458;-65
2023/06/07 04:04:16;;;;;;;7.18;3.25;;;19.40;64.40;;;;;;4175508;28;20118;-66
2023/06/07 04:06:59;;;;;;;;;;;19.40;64.30;;;;;;4175759;28;20055;-66
2023/06/07 04:09:41;;;;;;;13.68;3.63;;;19.40;64.30;;;;;;4174949;28;19932;-66
2023/06/07 04:12:22;;;;;;;13.40;3.90;;;19.30;64.50;;;;;;4175042;28;20083;-66
2023/06/07 04:15:05;;;;;;;10.02;3.47;;;19.30;64.30;;;;;;4175770;28;20510;-66
2023/06/07 04:17:48;;;;;;;9.48;3.60;;;19.30;64.30;;;;;;4182069;28;20047;-66
2023/06/07 04:20:30;;;;;;;10.50;3.72;;;19.30;64.30;;;;;;4191229;28;20511;-67
2023/06/07 04:23:14;;;;;;;9.52;3.90;;;19.30;64.40;;;;;;4191198;28;20056;-66
2023/06/07 04:25:56;;;;;;;8.55;3.85;;;19.30;64.40;;;;;;4191446;28;20487;-67
2023/06/07 04:28:40;;;;;;;9.15;3.58;;;19.30;64.50;;;;;;4192815;28;20082;-62
2023/06/07 04:31:29;;;;;;;9.02;3.35;;;19.30;64.90;;;;;;4190994;28;20074;-66
2023/06/07 04:34:17;;;;;;;12.77;3.28;;;19.30;65.30;;;;;;4191092;28;20097;-66
2023/06/07 04:36:59;;;;;;;10.02;3.25;;;19.30;65.30;;;;;;4191098;28;20170;-66
2023/06/07 04:39:44;;;;;;;;;;;19.30;65.10;;;;;;4188337;28;20194;-66
2023/06/07 04:42:27;;;;;;;9.80;3.13;;;19.30;65.10;;;;;;4190751;28;20291;-66
2023/06/07 04:45:10;;;;;;;9.55;3.45;;;19.30;65.10;;;;;;4190857;28;20573;-66
2023/06/07 04:47:51;;;;;;;;;;;19.30;65.10;;;;;;4191140;28;20052;-65
2023/06/07 04:50:33;;;;;;;15.85;3.10;;;19.30;65.00;;;;;;4190854;28;19931;-64
2023/06/07 04:53:19;;;;;;;7.90;2.95;;;19.30;65.00;;;;;;4192239;28;20085;-64
2023/06/07 04:56:04;;;;;;;11.73;4.00;;;19.30;65.10;;;;;;4190893;28;20047;-64
2023/06/07 04:58:46;;;;;;;8.07;3.15;;;19.30;65.30;;;;;;4177944;28;20056;-65
2023/06/07 05:01:33;;;;;;;13.52;3.85;;;19.20;65.30;;;;;;4162637;28;20194;-65
2023/06/07 05:04:14;;;;;;;8.63;3.00;;;19.20;65.40;;;;;;4173554;28;20060;-65
2023/06/07 05:07:02;;;;;;;11.07;3.55;;;19.20;65.30;;;;;;4174386;28;20052;-65
2023/06/07 05:09:45;;;;;;;9.60;3.53;;;19.20;64.90;;;;;;4178926;28;20051;-68
2023/06/07 05:12:29;;;;;;;6.47;3.03;;;19.20;64.90;;;;;;4191000;28;20059;-67
2023/06/07 05:15:10;;;;;;;7.85;3.05;;;19.20;64.60;;;;;;4191868;28;20063;-66
2023/06/07 05:17:53;;;;;;;8.57;2.95;;;19.30;64.60;;;;;;4190870;28;20174;-66
2023/06/07 05:20:36;;;;;;;8.32;3.47;;;19.20;64.40;;;;;;4191168;28;20051;-66
2023/06/07 05:23:17;;;;;;;9.65;3.28;;;19.20;64.60;;;;;;4190951;28;20051;-66
2023/06/07 05:26:03;;;;;;;12.07;3.38;;;19.20;64.70;;;;;;4191102;28;20047;-65
2023/06/07 05:28:47;;;;;;;12.27;3.47;;;19.20;64.90;;;;;;4190744;28;21520;-66
2023/06/07 05:31:29;;;;;;;7.13;3.25;;;19.20;65.60;;;;;;4190531;28;20598;-65
2023/06/07 05:34:10;;;;;;;8.85;3.13;;;19.20;65.00;;;;;;4190681;28;20047;-67
2023/06/07 05:36:52;;;;;;;7.05;2.70;;;19.20;64.90;;;;;;4179501;28;20503;-66
2023/06/07 05:39:33;;;;;;;10.85;3.10;;;19.20;64.70;;;;;;4191190;28;20047;-67
2023/06/07 05:55:02;;;;;;;8.15;2.92;;;19.10;66.30;;;;;;3998846;29;20186;-66
2023/06/07 05:57:44;;;;;;;8.38;2.97;;;19.10;67.80;;;;;;4001089;29;20052;-66
2023/06/07 06:00:25;;;;;;;8.55;3.00;;;19.10;68.00;;;;;;4001533;29;20060;-66
2023/06/07 06:03:08;;;;;;;13.57;3.30;;;19.20;68.20;;;;;;3993807;29;20065;-66
2023/06/07 06:05:50;;;;;;;7.22;2.88;;;19.20;67.90;;;;;;3998691;29;20085;-64
2023/06/07 06:08:31;;;;;;;7.15;2.65;;;19.20;67.20;;;;;;3997507;29;20056;-66
2023/06/07 06:11:15;;;;;;;9.40;2.88;;;19.20;66.30;;;;;;3996347;29;20053;-66
2023/06/07 06:13:56;;;;;;;10.65;3.70;;;19.20;66.40;;;;;;3999076;29;20053;-65
2023/06/07 06:16:37;;;;;;;11.32;3.08;;;19.20;66.10;;;;;;4001812;29;20443;-66
2023/06/07 06:19:18;;;;;;;11.65;3.70;;;19.20;66.60;;;;;;4001599;29;20061;-64
2023/06/07 06:21:58;;;;;;;11.05;3.17;;;19.20;66.30;;;;;;4001497;29;20061;-65
2023/06/07 06:24:39;;;;;;;9.05;3.30;;;19.20;66.00;;;;;;4001926;29;20061;-66
2023/06/07 06:27:22;;;;;;;13.63;3.30;;;19.20;65.50;;;;;;4000047;29;20060;-65
2023/06/07 06:30:03;;;;;;;12.18;2.78;;;19.20;65.50;;;;;;3999855;29;20060;-66
2023/06/07 06:32:44;;;;;;;;;;;19.20;65.40;;;;;;4001914;29;20053;-63
2023/06/07 06:35:25;;;;;;;6.38;2.67;;;19.20;65.20;;;;;;3999487;29;19935;-64
2023/06/07 06:38:06;;;;;;;6.13;2.97;;;19.20;65.40;;;;;;4000275;29;20102;-65
2023/06/07 06:40:47;;;;;;;8.98;2.97;;;19.20;66.10;;;;;;4000472;29;20125;-65
2023/06/07 06:43:29;;;;;;;9.60;3.10;;;19.20;64.80;;;;;;4000476;29;20061;-65
2023/06/07 06:46:13;;;;;;;10.15;2.95;;;19.20;64.60;;;;;;4010589;29;20105;-65
2023/06/07 06:48:56;;;;;;;11.63;3.53;;;19.20;64.70;;;;;;4008712;29;20057;-65
2023/06/07 06:51:51;;;;;;;10.70;2.80;;;19.20;64.90;;;;;;4000530;29;20118;-65
2023/06/07 06:54:32;;;;;;;7.88;3.10;;;19.20;64.70;;;;;;4000647;29;20061;-65
2023/06/07 06:57:14;;;;;;;7.68;3.10;;;19.20;64.90;;;;;;4000684;29;20061;-65
2023/06/07 06:59:56;;;;;;;5.20;2.58;;;19.30;64.60;;;;;;4000689;29;20069;-65
2023/06/07 07:02:37;;;;;;;3.40;2.60;;;19.30;64.70;;;;;;4000057;29;20150;-65
2023/06/07 07:05:18;;;;;;;9.88;3.30;;;19.30;65.50;;;;;;4000062;29;20265;-65
2023/06/07 07:07:58;;;;;;;11.93;3.28;;;19.30;64.80;;;;;;4000879;29;20053;-64
2023/06/07 07:10:40;;;;;;;5.80;2.55;;;19.30;64.30;;;;;;4000535;29;20186;-64
2023/06/07 07:13:20;;;;;;;;;;;19.30;64.00;;;;;;4000463;29;20520;-65
2023/06/07 07:16:03;;;;;;;4.63;2.85;;;19.30;64.80;;;;;;4000044;29;20064;-64
2023/06/07 07:18:44;;;;;;;10.88;3.42;;;19.30;64.20;;;;;;4000534;29;20137;-64
2023/06/07 07:21:27;;;;;;;8.23;2.75;;;19.30;64.20;;;;;;4001119;29;20141;-65
2023/06/07 07:24:08;;;;;;;7.53;2.90;;;19.30;64.20;;;;;;4000544;29;20429;-65
2023/06/07 07:26:51;;;;;;;6.25;2.67;;;19.40;63.90;;;;;;3999529;29;20250;-65
2023/06/07 07:29:32;;;;;;;10.38;3.20;;;19.40;63.80;;;;;;3999875;29;20053;-65
2023/06/07 07:32:14;;;;;;;10.27;2.75;;;19.40;63.30;;;;;;4000500;29;20234;-64
2023/06/07 07:34:55;;;;;;;8.40;3.15;;;19.40;63.40;;;;;;3999234;29;20102;-65
2023/06/07 07:37:38;;;;;;;9.13;3.25;;;19.40;63.70;;;;;;3999692;29;20145;-64
2023/06/07 07:40:19;;;;;;;7.65;3.03;;;19.40;63.70;;;;;;4000386;29;20056;-63
2023/06/07 07:43:00;;;;;;;11.02;3.50;;;19.50;63.50;;;;;;4000736;29;20060;-64
2023/06/07 07:45:41;;;;;;;9.60;2.88;;;19.50;63.20;;;;;;4000403;29;20064;-62
2023/06/07 07:48:23;;;;;;;6.75;3.10;;;19.50;63.20;;;;;;4000535;29;20056;-66
2023/06/07 07:51:05;;;;;;;5.40;3.08;;;19.60;63.90;;;;;;3999972;29;20137;-65
2023/06/07 07:53:47;;;;;;;11.00;3.00;;;19.70;62.80;;;;;;3999766;29;20579;-65
2023/06/07 07:56:27;;;;;;;10.63;3.60;;;19.70;62.20;;;;;;4000054;29;20069;-64
2023/06/07 07:59:08;;;;;;;9.73;3.40;;;19.80;62.60;;;;;;3999720;29;20053;-65
2023/06/07 08:01:51;;;;;;;7.05;2.78;;;19.90;62.10;;;;;;3999066;29;20077;-65
2023/06/07 08:04:33;;;;;;;10.70;3.35;;;20.10;61.80;;;;;;3999678;29;20117;-65
2023/06/07 08:07:15;;;;;;;9.73;3.72;;;20.20;61.50;;;;;;3999077;29;20056;-65
2023/06/07 08:09:56;;;;;;;12.18;3.70;;;20.20;61.40;;;;;;3999681;29;20064;-65
2023/06/07 08:12:37;;;;;;;10.98;3.30;;;20.20;62.50;;;;;;3999662;29;20065;-61
2023/06/07 08:15:19;;;;;;;8.48;3.20;;;20.30;61.50;;;;;;3998562;29;20065;-61
2023/06/07 08:18:00;;;;;;;9.48;3.65;;;20.30;61.20;;;;;;3998983;29;20068;-61
2023/06/07 08:20:43;;;;;;;7.97;3.80;;;20.30;61.20;;;;;;3998975;29;20053;-61
2023/06/07 08:23:23;;;;;;;13.48;3.28;;;20.30;61.40;;;;;;3999396;29;20060;-63
2023/06/07 08:26:04;;;;;;;9.48;4.07;;;20.30;62.10;;;;;;3997822;29;20064;-61
2023/06/07 08:28:45;;;;;;;6.00;2.88;;;20.30;61.40;;;;;;3998605;29;20056;-61
2023/06/07 08:31:28;;;;;;;7.65;3.00;;;20.30;61.50;;;;;;3998568;29;20626;-61
2023/06/07 08:34:10;;;;;;;6.60;3.30;;;20.30;61.30;;;;;;3998477;29;20069;-61
2023/06/07 08:36:52;;;;;;;5.55;2.97;;;20.30;60.70;;;;;;3998871;29;20544;-62
2023/06/07 08:39:33;;;;;;;8.60;3.15;;;20.40;60.80;;;;;;3998993;29;20092;-65
2023/06/07 08:42:13;;;;;;;8.25;3.50;;;20.40;60.70;;;;;;3999463;29;20068;-66
2023/06/07 08:44:54;;;;;;;5.95;3.33;;;20.40;60.80;;;;;;3999298;29;20389;-65
2023/06/07 08:47:36;;;;;;;;;;;20.40;60.60;;;;;;3999514;29;20512;-65
2023/06/07 08:50:22;;;;;;;6.10;3.10;;;20.50;60.60;;;;;;3998974;29;19935;-65
2023/06/07 08:53:10;;;;;;;10.52;3.33;;;20.50;60.00;;;;;;3999004;29;20190;-65
2023/06/07 08:55:52;;;;;;;7.30;3.47;;;20.50;60.10;;;;;;3998714;29;20065;-65
2023/06/07 08:58:34;;;;;;;7.15;3.42;;;20.50;60.30;;;;;;3999271;29;20053;-65
2023/06/07 09:01:16;;;;;;;9.82;3.50;;;20.50;60.70;;;;;;3999164;29;20137;-65
2023/06/07 09:03:57;;;;;;;;;;;20.60;60.70;;;;;;3999501;29;20061;-65
2023/06/07 09:06:39;;;;;;;11.20;4.03;;;20.60;60.90;;;;;;3998877;29;20068;-65
2023/06/07 09:09:22;;;;;;;6.60;3.22;;;20.60;60.90;;;;;;3999150;29;20394;-64
2023/06/07 09:12:04;;;;;;;7.63;3.70;;;20.60;60.30;;;;;;3998731;29;20061;-65
2023/06/07 09:14:48;;;;;;;12.38;4.32;;;20.60;60.70;;;;;;3998524;29;20112;-64
2023/06/07 09:17:51;;;;;;;7.40;3.50;;;20.70;60.10;;;;;;3987655;29;20066;-64
2023/06/07 09:20:33;;;;;;;6.57;4.03;;;20.70;60.00;;;;;;3998986;29;20061;-61
2023/06/07 09:23:14;;;;;;;8.93;4.13;;;20.70;60.90;;;;;;3999111;29;20064;-62
2023/06/07 09:25:57;;;;;;;;;;;20.70;60.30;;;;;;3999033;29;20061;-62
2023/06/07 09:28:38;;;;;;;10.48;4.18;;;20.80;60.30;;;;;;3998525;29;20280;-61
2023/06/07 09:31:29;;;;;;;;;;;20.80;60.00;;;;;;3999321;29;20088;-61
2023/06/07 09:34:21;;;;;;;10.82;4.50;;;20.80;59.80;;;;;;3998439;29;20502;-61
2023/06/07 09:37:03;;;;;;;7.82;4.07;;;20.80;59.60;;;;;;3998900;29;20057;-61
2023/06/07 09:39:44;;;;;;;9.02;3.70;;;20.80;59.50;;;;;;3998913;29;20061;-61
2023/06/07 09:42:26;;;;;;;12.18;4.03;;;20.80;59.50;;;;;;3998933;29;20061;-61
2023/06/07 09:45:12;;;;;;;5.63;3.53;;;20.80;59.40;;;;;;3997562;29;20577;-61
2023/06/07 09:48:02;;;;;;;7.75;4.30;;;20.90;59.30;;;;;;3998682;29;20496;-61
2023/06/07 09:50:56;;;;;;;9.70;4.17;;;20.90;59.10;;;;;;4002124;29;20086;-61
2023/06/07 09:53:50;;;;;;;8.35;4.32;;;20.90;59.20;;;;;;4001121;29;20305;-61
2023/06/07 09:56:31;;;;;;;14.45;4.45;;;20.90;59.60;;;;;;4001772;29;20472;-62
2023/06/07 09:59:14;;;;;;;;;;;20.90;59.70;;;;;;4001077;29;20056;-62
2023/06/07 10:01:55;;;;;;;17.55;4.43;;;21.00;59.80;;;;;;4001850;29;19936;-62
2023/06/07 10:04:36;;;;;;;11.32;4.75;;;21.00;59.40;;;;;;3990205;29;20138;-61
2023/06/07 10:07:19;;;;;;;;;;;21.00;59.30;;;;;;4001873;29;20053;-61
2023/06/07 10:10:02;;;;;;;8.98;4.30;;;21.00;59.40;;;;;;4000799;29;20280;-61
2023/06/07 10:12:45;;;;;;;12.50;4.60;;;21.10;59.60;;;;;;4001030;29;20566;-62
2023/06/07 10:15:29;;;;;;;8.40;4.28;;;21.10;59.40;;;;;;4000973;29;20068;-62
2023/06/07 10:18:16;;;;;;;10.05;4.82;;;21.10;59.70;;;;;;4000681;29;20061;-61
2023/06/07 10:21:01;;;;;;;7.80;4.63;;;21.10;59.50;;;;;;4000526;29;20173;-62
2023/06/07 10:23:51;;;;;;;8.93;4.78;;;21.10;59.60;;;;;;4001043;29;20105;-62
2023/06/07 10:26:42;;;;;;;9.73;5.00;;;21.20;59.90;;;;;;4000758;29;20569;-62
2023/06/07 10:29:30;;;;;;;9.48;4.65;;;21.20;59.70;;;;;;4000878;29;20598;-62
2023/06/07 10:32:17;;;;;;;7.95;4.60;;;21.20;59.50;;;;;;4000822;29;20081;-62
2023/06/07 10:35:00;;;;;;;16.00;5.70;;;21.20;59.30;;;;;;4001230;29;20057;-65
2023/06/07 10:37:43;;;;;;;11.52;5.72;;;21.30;59.50;;;;;;4001242;29;20052;-65
2023/06/07 10:40:25;;;;;;;10.57;5.30;;;21.30;59.60;;;;;;4000976;29;20092;-65
2023/06/07 10:43:06;;;;;;;10.95;5.53;;;21.30;59.80;;;;;;4000616;29;20560;-62
2023/06/07 10:45:47;;;;;;;13.02;6.20;;;21.30;60.50;;;;;;3999834;29;20072;-62
2023/06/07 10:48:33;;;;;;;;;;;21.30;59.70;;;;;;4000988;29;20142;-63
2023/06/07 10:51:15;;;;;;;10.95;5.68;;;21.30;59.70;;;;;;4000833;29;19935;-63
2023/06/07 10:53:56;;;;;;;;;;;21.30;59.60;;;;;;3999454;29;20522;-62
2023/06/07 10:56:38;;;;;;;12.43;5.18;;;21.40;59.80;;;;;;3999964;29;19935;-63
2023/06/07 10:59:23;;;;;;;13.55;5.80;;;21.40;59.80;;;;;;3999478;29;20057;-62
2023/06/07 11:02:21;;;;;;;18.27;5.80;;;21.40;59.80;;;;;;3998864;29;20077;-62
2023/06/07 11:05:05;;;;;;;14.93;5.53;;;21.40;59.80;;;;;;3999490;29;20505;-59
2023/06/07 11:07:48;;;;;;;11.45;5.03;;;21.40;59.90;;;;;;3999118;29;20061;-59
2023/06/07 11:10:34;;;;;;;11.95;4.80;;;21.40;60.30;;;;;;3999765;29;20137;-61
2023/06/07 11:13:14;;;;;;;9.63;5.28;;;21.40;60.20;;;;;;3999068;29;20066;-60
2023/06/07 11:16:37;;;;;;;12.05;4.82;;;21.40;60.10;;;;;;4000104;29;20060;-60
2023/06/07 11:19:18;;;;;;;8.07;4.53;;;21.40;59.90;;;;;;3998190;29;20048;-60
2023/06/07 11:22:07;;;;;;;11.82;5.10;;;21.40;59.80;;;;;;4000713;29;20060;-61
2023/06/07 11:24:49;;;;;;;11.15;4.97;;;21.40;59.80;;;;;;4000598;29;20181;-60
2023/06/07 11:27:31;;;;;;;7.60;5.60;;;21.50;59.80;;;;;;4000087;29;20089;-60
2023/06/07 11:30:13;;;;;;;11.15;5.20;;;21.50;60.00;;;;;;4000560;29;20061;-60
2023/06/07 11:32:54;;;;;;;11.43;5.70;;;21.50;60.00;;;;;;4000367;29;20081;-60
2023/06/07 11:35:36;;;;;;;14.73;5.40;;;21.50;59.90;;;;;;4000357;29;20061;-59
2023/06/07 11:38:18;;;;;;;;;;;21.50;60.00;;;;;;3999416;29;20493;-60
2023/06/07 11:40:59;;;;;;;12.70;5.10;;;21.50;59.90;;;;;;4000289;29;19931;-60
2023/06/07 11:43:41;;;;;;;11.98;5.22;;;21.50;59.60;;;;;;4000113;29;20064;-60
2023/06/07 11:46:21;;;;;;;9.25;4.93;;;21.50;59.50;;;;;;3999195;29;20203;-60
2023/06/07 11:49:09;;;;;;;8.60;4.25;;;21.50;59.40;;;;;;3999993;29;20533;-60
2023/06/07 11:51:50;;;;;;;9.63;4.35;;;21.50;59.20;;;;;;3999923;29;20736;-60
2023/06/07 11:54:33;;;;;;;10.38;4.70;;;21.50;59.00;;;;;;3999545;29;20060;-61
2023/06/07 11:57:14;;;;;;;8.88;4.47;;;21.50;59.40;;;;;;3998992;29;20202;-60
2023/06/07 11:59:55;;;;;;;8.82;4.28;;;21.50;59.50;;;;;;3999718;29;20195;-60
2023/06/07 12:02:39;;;;;;;10.95;4.80;;;21.50;59.40;;;;;;3999980;29;20077;-60
2023/06/07 12:05:30;;;;;;;9.02;4.70;;;21.50;59.30;;;;;;3998771;29;20101;-60
2023/06/07 12:08:13;;;;;;;13.95;5.13;;;21.50;59.30;;;;;;4000041;29;20066;-60
2023/06/07 12:10:56;;;;;;;10.00;4.78;;;21.60;59.40;;;;;;3999442;29;20117;-60
2023/06/07 12:13:39;;;;;;;13.93;4.45;;;21.60;59.30;;;;;;3999390;29;20060;-60
2023/06/07 12:16:21;;;;;;;9.45;4.47;;;21.60;60.10;;;;;;3998263;29;20057;-61
2023/06/07 12:19:02;;;;;;;12.00;5.05;;;21.60;59.30;;;;;;3998092;29;20171;-60
2023/06/07 12:21:43;;;;;;;12.57;5.47;;;21.60;59.20;;;;;;3998877;29;20065;-60
2023/06/07 12:24:24;;;;;;;12.18;4.75;;;21.60;59.20;;;;;;3999410;29;20633;-61
2023/06/07 12:27:11;;;;;;;12.77;4.95;;;21.60;59.10;;;;;;3998839;29;20199;-60
2023/06/07 12:29:54;;;;;;;8.07;4.78;;;21.60;59.20;;;;;;3999156;29;20136;-60
2023/06/07 12:32:35;;;;;;;14.73;5.22;;;21.60;59.20;;;;;;3998834;29;20198;-60
2023/06/07 12:35:16;;;;;;;11.32;5.00;;;21.60;59.30;;;;;;3998633;29;20064;-61
2023/06/07 12:37:57;;;;;;;9.70;4.72;;;21.60;59.30;;;;;;3999322;29;20068;-60
2023/06/07 12:40:38;;;;;;;12.60;5.70;;;21.60;59.30;;;;;;3998698;29;20061;-60
2023/06/07 12:43:20;;;;;;;15.80;5.40;;;21.60;59.80;;;;;;3999414;29;20064;-60
2023/06/07 12:46:01;;;;;;;7.18;4.25;;;21.60;59.00;;;;;;3999630;29;20056;-60
2023/06/07 12:48:42;;;;;;;10.75;4.82;;;21.60;59.00;;;;;;3998341;29;20177;-60
2023/06/07 12:51:23;;;;;;;;;;;21.60;59.10;;;;;;3999102;29;20057;-61
2023/06/07 12:54:05;;;;;;;8.93;4.35;;;21.60;59.10;;;;;;3999086;29;19936;-60
2023/06/07 12:56:46;;;;;;;12.25;5.07;;;21.60;59.10;;;;;;3999259;29;20061;-60
2023/06/07 12:59:28;;;;;;;12.35;4.50;;;21.60;59.20;;;;;;3998686;29;20073;-59
2023/06/07 13:02:10;;;;;;;10.93;4.97;;;21.60;59.40;;;;;;3998857;29;20137;-60
2023/06/07 13:04:51;;;;;;;14.50;5.18;;;21.70;59.50;;;;;;3998179;29;20125;-60
2023/06/07 13:07:32;;;;;;;10.90;5.07;;;21.70;59.50;;;;;;3999119;29;20069;-60
2023/06/07 13:10:13;;;;;;;9.25;4.40;;;21.70;59.60;;;;;;3998726;29;20199;-60
2023/06/07 13:12:54;;;;;;;12.68;6.22;;;21.70;59.40;;;;;;3998632;29;20060;-61
2023/06/07 13:15:36;;;;;;;9.50;5.13;;;21.70;59.40;;;;;;3999127;29;20065;-60
2023/06/07 13:18:18;;;;;;;12.23;5.05;;;21.70;59.50;;;;;;3997895;29;20065;-60
2023/06/07 13:21:01;;;;;;;12.02;4.97;;;21.70;59.20;;;;;;3998710;29;20072;-60
2023/06/07 13:23:42;;;;;;;15.50;5.60;;;21.70;59.10;;;;;;3988979;29;20520;-60
2023/06/07 13:26:24;;;;;;;13.77;5.07;;;21.70;59.10;;;;;;4002051;29;20118;-60
2023/06/07 13:29:05;;;;;;;12.15;5.15;;;21.80;59.20;;;;;;4002032;29;20524;-61
2023/06/07 13:31:48;;;;;;;8.80;4.47;;;21.80;59.00;;;;;;4000638;29;20772;-60
2023/06/07 13:34:29;;;;;;;8.80;5.45;;;21.80;58.80;;;;;;4001613;29;20178;-61
2023/06/07 13:37:10;;;;;;;9.32;5.57;;;21.80;58.60;;;;;;4001947;29;20065;-61
2023/06/07 13:39:51;;;;;;;12.07;5.35;;;21.80;58.60;;;;;;4001674;29;20056;-60
2023/06/07 13:42:33;;;;;;;10.63;5.30;;;21.80;58.50;;;;;;4000865;29;20977;-60
2023/06/07 13:45:14;;;;;;;10.45;5.03;;;21.80;58.50;;;;;;4000352;29;20065;-60
2023/06/07 13:47:57;;;;;;;10.85;5.00;;;21.80;58.50;;;;;;4001657;29;20065;-61
2023/06/07 13:50:40;;;;;;;12.48;5.65;;;21.80;58.50;;;;;;4001609;29;21555;-61
2023/06/07 13:53:23;;;;;;;17.35;5.03;;;21.80;58.30;;;;;;4000711;29;20061;-61
2023/06/07 13:56:04;;;;;;;;;;;21.80;58.40;;;;;;3990574;29;20182;-61
2023/06/07 13:58:46;;;;;;;11.97;5.00;;;21.80;58.70;;;;;;4001804;29;20276;-61
2023/06/07 14:01:27;;;;;;;10.38;4.93;;;21.80;58.20;;;;;;4001553;29;20068;-60
2023/06/07 14:04:09;;;;;;;10.98;5.03;;;21.80;58.20;;;;;;4000564;29;20077;-60
2023/06/07 14:06:51;;;;;;;10.65;4.88;;;21.80;59.00;;;;;;4000614;29;20073;-59
2023/06/07 14:09:32;;;;;;;11.32;5.32;;;21.80;58.40;;;;;;4000979;29;20416;-59
2023/06/07 14:12:12;;;;;;;12.52;5.70;;;21.80;59.00;;;;;;4000103;29;20101;-58
2023/06/07 14:14:53;;;;;;;11.18;4.85;;;21.80;58.40;;;;;;3989442;29;20049;-61
2023/06/07 14:17:34;;;;;;;13.57;5.32;;;21.80;58.20;;;;;;4001103;29;20520;-59
2023/06/07 14:20:16;;;;;;;8.63;4.85;;;21.80;58.20;;;;;;4000358;29;20405;-61